Time;durP1;ratioP1;P1;durP2;ratioP2;P2;SDS_P1;SDS_P2;PMS_P1;PMS_P2;Temp;Humidity;BMP_temperature;BMP_pressure;BME280_temperature;BME280_humidity;BME280_pressure;Samples;Min_cycle;Max_cycle;Signal;HPM_P1;HPM_P2
2024/04/06 00:01:16;;;;;;;6.35;2.95;;;14.00;99.90;;;;;;4880402;29;20041;-78
2024/04/06 00:03:42;;;;;;;7.47;3.70;;;14.00;99.90;;;;;;4885427;29;20077;-79
2024/04/06 00:06:07;;;;;;;9.35;3.33;;;14.00;99.90;;;;;;4866993;29;20062;-79
2024/04/06 00:08:33;;;;;;;5.90;3.03;;;14.00;99.90;;;;;;4862204;29;20116;-79
2024/04/06 00:10:58;;;;;;;7.32;3.42;;;14.00;99.90;;;;;;4867275;29;20069;-80
2024/04/06 00:13:24;;;;;;;5.97;2.80;;;13.90;99.90;;;;;;4875689;29;20400;-80
2024/04/06 00:15:50;;;;;;;8.45;3.10;;;13.90;99.90;;;;;;4908344;29;20078;-80
2024/04/06 00:18:16;;;;;;;8.07;3.10;;;13.90;99.90;;;;;;4936921;29;20098;-80
2024/04/06 00:20:41;;;;;;;7.13;3.42;;;13.90;99.90;;;;;;4899074;29;20037;-80
2024/04/06 00:23:07;;;;;;;8.30;3.55;;;13.80;99.90;;;;;;4857646;29;20094;-80
2024/04/06 00:25:32;;;;;;;8.18;3.58;;;13.80;99.90;;;;;;4848354;29;20117;-80
2024/04/06 00:27:58;;;;;;;6.90;3.10;;;13.80;99.90;;;;;;4899175;29;20033;-80
2024/04/06 00:30:24;;;;;;;9.88;4.05;;;13.80;99.90;;;;;;4903352;29;20048;-78
2024/04/06 00:32:49;;;;;;;7.95;3.63;;;13.80;99.90;;;;;;4918018;29;20040;-78
2024/04/06 00:35:16;;;;;;;7.90;3.78;;;13.80;99.90;;;;;;4931374;29;20047;-78
2024/04/06 00:37:41;;;;;;;6.40;3.30;;;13.80;99.90;;;;;;4917676;29;20080;-79
2024/04/06 00:40:08;;;;;;;10.90;3.67;;;13.80;99.90;;;;;;4918062;29;20036;-78
2024/04/06 00:42:33;;;;;;;8.80;3.78;;;13.80;99.90;;;;;;4898590;29;20040;-78
2024/04/06 00:44:59;;;;;;;10.10;3.60;;;13.70;99.90;;;;;;4898800;29;20127;-78
2024/04/06 00:47:25;;;;;;;6.18;2.90;;;13.70;99.90;;;;;;4898702;29;20492;-78
2024/04/06 00:49:51;;;;;;;7.35;3.30;;;13.70;99.90;;;;;;4879865;29;20076;-79
2024/04/06 00:52:16;;;;;;;6.97;3.38;;;13.70;99.90;;;;;;4908249;29;20048;-78
2024/04/06 00:54:42;;;;;;;5.63;3.33;;;13.70;99.90;;;;;;4917324;29;20067;-80
2024/04/06 00:57:08;;;;;;;7.47;3.78;;;13.70;99.90;;;;;;4879783;29;20123;-80
2024/04/06 00:59:37;;;;;;;6.72;3.40;;;13.60;99.90;;;;;;4879837;29;20086;-81
2024/04/06 01:02:04;;;;;;;6.97;3.33;;;13.60;1.00;;;;;;4879931;29;20041;-81
2024/04/06 01:04:29;;;;;;;6.45;3.00;;;13.60;1.00;;;;;;4908997;29;20032;-81
2024/04/06 01:06:55;;;;;;;6.68;3.30;;;13.50;1.00;;;;;;4898076;29;20033;-79
2024/04/06 01:09:22;;;;;;;6.78;3.10;;;13.60;1.00;;;;;;4912974;29;20120;-79
2024/04/06 01:11:47;;;;;;;7.75;3.40;;;13.60;1.00;;;;;;4898207;29;20029;-79
2024/04/06 01:14:13;;;;;;;6.78;3.30;;;13.60;1.00;;;;;;4912890;29;20055;-79
2024/04/06 01:16:39;;;;;;;6.07;3.10;;;13.60;1.00;;;;;;4879330;29;20040;-79
2024/04/06 01:19:04;;;;;;;11.60;3.97;;;13.60;1.00;;;;;;4879326;29;20046;-80
2024/04/06 01:21:30;;;;;;;7.78;3.05;;;13.60;1.00;;;;;;4860782;29;20104;-79
2024/04/06 01:23:55;;;;;;;5.85;3.42;;;13.50;1.00;;;;;;4879156;29;20045;-79
2024/04/06 01:26:22;;;;;;;8.48;3.35;;;13.60;1.00;;;;;;4878964;29;20440;-79
2024/04/06 01:28:47;;;;;;;7.75;3.15;;;13.50;1.00;;;;;;4841988;29;20042;-81
2024/04/06 01:31:13;;;;;;;6.57;3.85;;;13.50;1.00;;;;;;4823538;29;20403;-81
2024/04/06 01:33:40;;;;;;;6.32;3.10;;;13.40;1.00;;;;;;4823606;29;20125;-80
2024/04/06 01:36:06;;;;;;;6.53;3.90;;;13.30;1.00;;;;;;4806155;29;20054;-80
2024/04/06 01:38:32;;;;;;;8.25;4.22;;;13.20;1.00;;;;;;4803575;29;20038;-81
2024/04/06 01:40:58;;;;;;;8.82;3.95;;;13.20;1.00;;;;;;4805441;29;20507;-80
2024/04/06 01:43:24;;;;;;;7.95;3.65;;;13.10;36.40;;;;;;4821069;29;20039;-80
2024/04/06 01:45:50;;;;;;;7.55;3.95;;;13.10;91.60;;;;;;4842262;29;20049;-80
2024/04/06 01:48:15;;;;;;;7.57;3.70;;;13.10;97.30;;;;;;4823866;29;20035;-81
2024/04/06 01:50:41;;;;;;;7.72;3.42;;;13.00;99.90;;;;;;4851689;29;20558;-80
2024/04/06 01:53:07;;;;;;;6.80;3.47;;;12.90;99.90;;;;;;4860373;29;20060;-81
2024/04/06 01:55:32;;;;;;;6.68;3.00;;;12.90;99.90;;;;;;4860065;29;20498;-79
2024/04/06 01:57:58;;;;;;;4.57;2.47;;;12.90;99.90;;;;;;4878816;29;20047;-80
2024/04/06 02:00:23;;;;;;;6.50;2.65;;;12.80;99.90;;;;;;4841579;29;20034;-80
2024/04/06 02:02:49;;;;;;;5.32;2.28;;;12.80;99.90;;;;;;4841965;29;20053;-81
2024/04/06 02:05:14;;;;;;;3.80;2.40;;;12.80;93.60;;;;;;4873834;29;20039;-80
2024/04/06 02:07:40;;;;;;;6.28;2.10;;;12.80;75.30;;;;;;4878624;29;20040;-80
2024/04/06 02:10:05;;;;;;;5.05;2.10;;;12.70;60.20;;;;;;4865572;29;20235;-80
2024/04/06 02:12:31;;;;;;;4.00;2.10;;;12.80;6.30;;;;;;4888603;29;20164;-79
2024/04/06 02:14:56;;;;;;;4.07;1.63;;;12.70;1.00;;;;;;4878492;29;20037;-79
2024/04/06 02:17:22;;;;;;;5.72;2.05;;;12.70;1.00;;;;;;4878526;29;20436;-79
2024/04/06 02:19:47;;;;;;;5.38;2.00;;;12.70;1.00;;;;;;4877928;29;20421;-80
2024/04/06 02:22:13;;;;;;;3.72;1.80;;;12.70;1.00;;;;;;4878654;29;20101;-80
2024/04/06 02:24:39;;;;;;;3.88;1.63;;;12.60;1.00;;;;;;4859762;29;20030;-81
2024/04/06 02:27:05;;;;;;;5.30;2.00;;;12.60;1.00;;;;;;4867979;29;20505;-80
2024/04/06 02:29:31;;;;;;;6.47;1.90;;;12.50;1.00;;;;;;4841041;29;20042;-80
2024/04/06 02:31:59;;;;;;;4.43;1.77;;;12.50;1.00;;;;;;4854588;29;20502;-80
2024/04/06 02:34:26;;;;;;;4.72;1.70;;;12.50;1.00;;;;;;4859851;29;20126;-81
2024/04/06 02:36:52;;;;;;;4.85;1.85;;;12.50;1.00;;;;;;4855128;29;20423;-81
2024/04/06 02:39:17;;;;;;;4.57;1.85;;;12.40;1.00;;;;;;4888071;29;20036;-80
2024/04/06 02:41:43;;;;;;;3.55;1.85;;;12.40;1.00;;;;;;4896749;29;20142;-81
2024/04/06 02:44:08;;;;;;;3.92;2.20;;;12.40;1.00;;;;;;4840928;29;20120;-83
2024/04/06 02:46:34;;;;;;;2.50;1.58;;;12.30;1.00;;;;;;4869126;29;20132;-79
2024/04/06 02:48:59;;;;;;;4.90;1.70;;;12.30;1.00;;;;;;4878156;29;20123;-79
2024/04/06 02:51:26;;;;;;;4.22;1.60;;;12.30;1.00;;;;;;4878214;29;20060;-79
2024/04/06 02:53:51;;;;;;;2.60;1.40;;;12.20;1.00;;;;;;4840903;29;20463;-79
2024/04/06 02:56:17;;;;;;;2.50;1.50;;;12.20;1.00;;;;;;4836525;29;20137;-79
2024/04/06 02:58:42;;;;;;;4.90;1.77;;;12.20;1.00;;;;;;4863867;29;20046;-79
2024/04/06 03:01:08;;;;;;;2.80;1.55;;;12.20;1.00;;;;;;4887943;29;20119;-79
2024/04/06 03:03:34;;;;;;;3.05;1.42;;;12.20;1.00;;;;;;4896613;29;20080;-80
2024/04/06 03:06:00;;;;;;;3.53;1.70;;;12.10;1.00;;;;;;4877735;29;20033;-79
2024/04/06 03:08:26;;;;;;;4.50;1.88;;;12.10;1.00;;;;;;4877739;29;20033;-79
2024/04/06 03:10:52;;;;;;;6.18;1.50;;;12.00;1.00;;;;;;4877861;29;20047;-79
2024/04/06 03:13:19;;;;;;;3.45;1.65;;;12.00;1.00;;;;;;4877729;29;20471;-79
2024/04/06 03:15:45;;;;;;;3.85;1.30;;;12.10;1.00;;;;;;4892090;29;20080;-79
2024/04/06 03:18:12;;;;;;;4.55;1.50;;;12.00;1.00;;;;;;4910683;29;20040;-79
2024/04/06 03:20:38;;;;;;;2.83;1.48;;;11.90;1.00;;;;;;4896206;29;20464;-79
2024/04/06 03:23:05;;;;;;;3.72;1.60;;;11.90;1.00;;;;;;4877578;29;20140;-79
2024/04/06 03:25:31;;;;;;;3.30;1.55;;;11.90;1.00;;;;;;4891972;29;20032;-79
2024/04/06 03:27:57;;;;;;;3.13;1.50;;;11.90;1.00;;;;;;4914984;29;20047;-79
2024/04/06 03:30:24;;;;;;;2.67;1.25;;;11.80;1.00;;;;;;4897675;29;20040;-79
2024/04/06 03:32:50;;;;;;;3.50;1.38;;;11.80;1.00;;;;;;4927616;29;20047;-79
2024/04/06 03:35:16;;;;;;;2.13;1.20;;;11.80;1.00;;;;;;4919330;29;20040;-79
2024/04/06 03:37:42;;;;;;;4.30;1.50;;;11.70;1.00;;;;;;4895887;29;20578;-79
2024/04/06 03:40:09;;;;;;;2.78;1.33;;;11.70;1.00;;;;;;4900116;29;20040;-79
2024/04/06 03:42:35;;;;;;;2.95;1.48;;;11.70;1.00;;;;;;4900746;29;20045;-80
2024/04/06 03:45:03;;;;;;;3.63;1.60;;;11.60;1.00;;;;;;4948834;29;20042;-79
2024/04/06 03:47:29;;;;;;;3.70;1.48;;;11.70;1.00;;;;;;4956912;29;20065;-79
2024/04/06 03:49:54;;;;;;;2.58;1.50;;;11.60;1.00;;;;;;4937638;29;20474;-80
2024/04/06 03:52:21;;;;;;;3.22;1.80;;;11.60;1.00;;;;;;4918409;29;20548;-79
2024/04/06 03:54:46;;;;;;;3.30;1.70;;;11.50;1.00;;;;;;4881036;29;20505;-79
2024/04/06 03:57:12;;;;;;;2.70;1.63;;;11.40;1.00;;;;;;4862148;29;20043;-79
2024/04/06 03:59:37;;;;;;;3.25;2.00;;;11.40;4.60;;;;;;4862197;29;20030;-79
2024/04/06 04:02:03;;;;;;;3.90;1.90;;;11.40;2.80;;;;;;4876792;29;20041;-79
2024/04/06 04:04:29;;;;;;;4.30;1.90;;;11.40;1.00;;;;;;4881150;29;20033;-79
2024/04/06 04:06:55;;;;;;;5.90;2.17;;;11.40;1.00;;;;;;4843669;29;20038;-79
2024/04/06 04:09:21;;;;;;;3.20;1.90;;;11.40;1.00;;;;;;4843727;29;20038;-79
2024/04/06 04:11:46;;;;;;;3.55;1.92;;;11.40;1.00;;;;;;4843705;29;20038;-79
2024/04/06 04:14:12;;;;;;;4.00;1.88;;;11.40;1.00;;;;;;4843527;29;20049;-79
2024/04/06 04:16:38;;;;;;;4.15;1.92;;;11.40;1.00;;;;;;4867060;29;20048;-79
2024/04/06 04:19:03;;;;;;;3.28;1.83;;;11.50;1.00;;;;;;4861753;29;20045;-79
2024/04/06 04:21:30;;;;;;;4.18;1.98;;;11.50;1.00;;;;;;4875707;29;20045;-79
2024/04/06 04:23:56;;;;;;;3.92;2.03;;;11.50;1.00;;;;;;4894770;29;20535;-79
2024/04/06 04:26:23;;;;;;;5.68;2.22;;;11.60;1.00;;;;;;4913072;29;20040;-79
2024/04/06 04:28:48;;;;;;;3.45;2.20;;;11.60;1.00;;;;;;4913188;29;20176;-79
2024/04/06 04:31:16;;;;;;;4.97;1.88;;;12.10;1.00;;;;;;4946436;29;20138;-79
2024/04/06 04:33:42;;;;;;;4.28;1.83;;;12.90;99.90;;;;;;4936631;29;20044;-78
2024/04/06 04:36:09;;;;;;;4.05;2.35;;;13.80;99.90;;;;;;4937163;29;20159;-79
2024/04/06 04:38:35;;;;;;;5.43;2.47;;;14.60;1.00;;;;;;4932328;29;20047;-79
2024/04/06 04:41:00;;;;;;;4.00;2.35;;;15.30;99.90;;;;;;4917472;29;20059;-79
2024/04/06 04:43:26;;;;;;;4.78;2.45;;;15.90;59.30;;;;;;4917479;29;20040;-79
2024/04/06 04:45:52;;;;;;;5.97;2.70;;;16.20;1.00;;;;;;4879967;29;20225;-79
2024/04/06 04:48:17;;;;;;;4.47;2.65;;;15.70;1.00;;;;;;4846959;29;20075;-78
2024/04/06 04:50:43;;;;;;;5.07;3.08;;;15.20;99.90;;;;;;4842919;29;20094;-79
2024/04/06 04:53:09;;;;;;;4.68;2.97;;;14.70;99.90;;;;;;4824388;29;20484;-79
2024/04/06 04:55:38;;;;;;;5.75;2.88;;;14.50;99.90;;;;;;4824489;29;20049;-79
2024/04/06 04:58:04;;;;;;;5.50;3.22;;;14.50;1.00;;;;;;4842760;29;20038;-79
2024/04/06 05:00:30;;;;;;;5.07;2.72;;;14.10;1.00;;;;;;4857409;29;20136;-79
2024/04/06 05:02:56;;;;;;;5.85;3.08;;;13.70;1.00;;;;;;4861280;29;20046;-79
2024/04/06 05:05:22;;;;;;;4.35;2.80;;;13.50;1.00;;;;;;4861352;29;20150;-79
2024/04/06 05:07:48;;;;;;;6.22;2.97;;;13.30;85.10;;;;;;4861406;29;20037;-78
2024/04/06 05:10:14;;;;;;;5.28;3.00;;;13.20;99.90;;;;;;4861073;29;20117;-79
2024/04/06 05:12:39;;;;;;;4.90;3.00;;;13.10;99.90;;;;;;4856536;29;20044;-79
2024/04/06 05:15:05;;;;;;;5.10;3.00;;;13.10;99.90;;;;;;4825952;29;20038;-79
2024/04/06 05:17:31;;;;;;;5.30;3.40;;;13.00;99.90;;;;;;4856380;29;20057;-78
2024/04/06 05:19:56;;;;;;;6.18;3.28;;;13.00;99.90;;;;;;4860877;29;20411;-79
2024/04/06 05:22:22;;;;;;;4.88;2.97;;;12.90;99.90;;;;;;4860816;29;20042;-79
2024/04/06 05:24:47;;;;;;;5.57;3.30;;;13.00;99.90;;;;;;4848884;29;20410;-78
2024/04/06 05:27:13;;;;;;;6.93;3.17;;;12.90;99.90;;;;;;4860658;29;20466;-78
2024/04/06 05:29:38;;;;;;;5.32;3.40;;;13.00;99.90;;;;;;4865442;29;20037;-78
2024/04/06 05:32:05;;;;;;;6.88;3.63;;;13.00;99.90;;;;;;4841796;29;20204;-78
2024/04/06 05:34:30;;;;;;;6.85;3.17;;;13.00;99.90;;;;;;4842377;29;20124;-78
2024/04/06 05:36:56;;;;;;;7.07;3.28;;;13.10;99.90;;;;;;4878995;29;20145;-78
2024/04/06 05:39:23;;;;;;;5.68;3.53;;;13.10;99.90;;;;;;4860293;29;20037;-78
2024/04/06 05:41:49;;;;;;;5.95;3.28;;;13.20;99.90;;;;;;4860485;29;20098;-78
2024/04/06 05:44:14;;;;;;;6.00;3.25;;;13.20;99.90;;;;;;4860361;29;20114;-78
2024/04/06 05:46:40;;;;;;;5.25;2.97;;;13.20;99.90;;;;;;4860781;29;20128;-78
2024/04/06 05:49:05;;;;;;;5.22;3.30;;;13.30;99.90;;;;;;4860344;29;20132;-79
2024/04/06 05:51:32;;;;;;;5.95;3.38;;;13.40;99.90;;;;;;4860283;29;20069;-78
2024/04/06 05:53:57;;;;;;;7.20;3.92;;;13.50;99.90;;;;;;4879215;29;20064;-78
2024/04/06 05:56:23;;;;;;;7.53;3.90;;;13.50;58.00;;;;;;4878509;29;20532;-77
2024/04/06 05:58:49;;;;;;;6.03;3.03;;;13.60;90.10;;;;;;4878919;29;20047;-78
2024/04/06 06:01:15;;;;;;;5.80;3.80;;;13.70;71.80;;;;;;4878740;29;20044;-78
2024/04/06 06:03:40;;;;;;;6.30;3.13;;;13.90;23.40;;;;;;4878809;29;20465;-78
2024/04/06 06:06:06;;;;;;;5.38;3.10;;;14.10;1.00;;;;;;4878683;29;20036;-78
2024/04/06 06:08:31;;;;;;;6.00;3.33;;;14.10;1.00;;;;;;4908395;29;20400;-78
2024/04/06 06:10:58;;;;;;;4.78;3.10;;;14.10;1.00;;;;;;4935010;29;20036;-78
2024/04/06 06:13:24;;;;;;;6.00;3.03;;;14.20;1.00;;;;;;4897193;29;20161;-78
2024/04/06 06:15:49;;;;;;;6.88;4.22;;;14.20;1.00;;;;;;4897186;29;20548;-78
2024/04/06 06:18:15;;;;;;;5.45;3.08;;;14.30;1.00;;;;;;4925348;29;20048;-77
2024/04/06 06:20:41;;;;;;;4.63;2.78;;;14.30;1.00;;;;;;4935241;29;20035;-77
2024/04/06 06:23:06;;;;;;;5.20;3.40;;;14.60;1.00;;;;;;4934950;29;20480;-78
2024/04/06 06:25:33;;;;;;;5.45;3.25;;;14.70;1.00;;;;;;4910784;29;20036;-77
2024/04/06 06:27:58;;;;;;;5.63;2.83;;;15.00;99.90;;;;;;4944205;29;20479;-77
2024/04/06 06:30:24;;;;;;;4.95;2.70;;;15.10;99.90;;;;;;4953632;29;20059;-77
2024/04/06 06:32:50;;;;;;;6.90;3.10;;;15.30;99.90;;;;;;4953683;29;20042;-77
2024/04/06 06:35:16;;;;;;;4.07;2.53;;;15.60;99.90;;;;;;4934429;29;20103;-77
2024/04/06 06:37:41;;;;;;;6.78;2.75;;;16.00;99.90;;;;;;4934481;29;20048;-78
2024/04/06 06:40:07;;;;;;;6.95;2.58;;;16.30;1.00;;;;;;4934594;29;20059;-77
2024/04/06 06:42:33;;;;;;;5.35;3.00;;;16.60;1.00;;;;;;4934580;29;20045;-77
2024/04/06 06:45:01;;;;;;;6.13;3.08;;;16.70;99.90;;;;;;4962704;28;20062;-77
2024/04/06 06:47:26;;;;;;;7.07;3.10;;;16.90;99.90;;;;;;4972930;28;20509;-77
2024/04/06 06:49:52;;;;;;;4.55;2.60;;;17.10;99.90;;;;;;4934273;29;20067;-77
2024/04/06 06:52:17;;;;;;;4.90;2.42;;;17.40;70.00;;;;;;4934265;29;20516;-78
2024/04/06 06:54:43;;;;;;;7.75;2.78;;;17.70;1.00;;;;;;4914990;29;20044;-77
2024/04/06 06:57:09;;;;;;;5.90;3.00;;;18.00;1.00;;;;;;4915255;29;20072;-78
2024/04/06 06:59:35;;;;;;;5.25;2.33;;;17.60;99.90;;;;;;4915363;29;20166;-77
2024/04/06 07:02:01;;;;;;;4.65;2.63;;;17.00;1.00;;;;;;4915329;29;20574;-77
2024/04/06 07:04:26;;;;;;;4.70;2.47;;;16.90;1.00;;;;;;4877426;29;20511;-78
2024/04/06 07:06:52;;;;;;;5.10;2.55;;;16.80;1.00;;;;;;4877808;29;20438;-77
2024/04/06 07:09:17;;;;;;;7.38;3.10;;;16.50;99.90;;;;;;4877606;29;20541;-77
2024/04/06 07:11:43;;;;;;;4.93;2.35;;;16.50;99.90;;;;;;4858971;29;20033;-77
2024/04/06 07:14:11;;;;;;;6.78;4.13;;;16.50;99.90;;;;;;4859202;29;20116;-77
2024/04/06 07:16:37;;;;;;;5.70;3.17;;;16.90;99.90;;;;;;4840462;29;20046;-77
2024/04/06 07:19:04;;;;;;;4.90;2.50;;;18.50;1.00;;;;;;4840673;29;20038;-77
2024/04/06 07:21:31;;;;;;;5.82;2.40;;;19.80;99.90;;;;;;4840824;29;20042;-77
2024/04/06 07:23:56;;;;;;;7.22;3.97;;;21.30;99.90;;;;;;4822259;29;20099;-78
2024/04/06 07:26:23;;;;;;;7.93;3.65;;;22.30;1.00;;;;;;4851624;29;20038;-78
2024/04/06 07:28:49;;;;;;;6.43;3.00;;;23.40;99.90;;;;;;4855157;29;20422;-78
2024/04/06 07:31:14;;;;;;;4.85;2.50;;;23.80;1.00;;;;;;4858540;29;20057;-78
2024/04/06 07:33:40;;;;;;;4.75;2.50;;;22.80;1.00;;;;;;4858923;29;20046;-78
2024/04/06 07:36:06;;;;;;;6.32;2.53;;;22.40;1.00;;;;;;4906182;29;20063;-78
2024/04/06 07:38:31;;;;;;;5.25;2.95;;;23.20;99.90;;;;;;4914955;29;20460;-78
2024/04/06 07:41:01;;;;;;;4.97;2.60;;;24.80;99.90;;;;;;4915541;29;20127;-78
2024/04/06 07:43:27;;;;;;;4.88;2.72;;;25.50;99.90;;;;;;4884796;29;20181;-78
2024/04/06 07:45:53;;;;;;;4.18;2.60;;;24.30;99.90;;;;;;4880602;29;20048;-78
2024/04/06 07:48:19;;;;;;;6.90;2.70;;;24.20;99.90;;;;;;4941346;29;20040;-78
2024/04/06 07:50:45;;;;;;;5.13;2.72;;;24.50;99.90;;;;;;4952958;29;20034;-78
2024/04/06 07:53:11;;;;;;;4.70;2.53;;;26.10;99.90;;;;;;4952943;29;20206;-78
2024/04/06 07:55:39;;;;;;;6.07;2.22;;;26.30;99.90;;;;;;4953275;29;20047;-78
2024/04/06 07:58:04;;;;;;;5.63;2.50;;;25.30;99.90;;;;;;4972383;28;20035;-78
2024/04/06 08:00:31;;;;;;;5.32;2.58;;;24.90;99.90;;;;;;4955520;28;20441;-77
2024/04/06 08:02:56;;;;;;;5.47;2.17;;;23.90;99.90;;;;;;4933568;29;20518;-78
2024/04/06 08:05:22;;;;;;;4.50;2.03;;;23.10;99.90;;;;;;4895881;29;20132;-78
2024/04/06 08:07:47;;;;;;;5.30;2.15;;;22.40;99.90;;;;;;4896055;29;20048;-79
2024/04/06 08:10:18;;;;;;;6.15;2.05;;;21.80;99.90;;;;;;4895906;29;20041;-78
2024/04/06 08:12:43;;;;;;;5.35;2.50;;;21.20;99.90;;;;;;4899080;29;20560;-78
2024/04/06 08:15:10;;;;;;;5.00;2.22;;;20.80;99.90;;;;;;4895687;29;20049;-79
2024/04/06 08:17:46;;;;;;;7.95;2.47;;;20.60;99.90;;;;;;4897848;29;20064;-79
2024/04/06 08:20:12;;;;;;;4.60;2.00;;;20.20;99.90;;;;;;4843725;29;20495;-79
2024/04/06 08:22:42;;;;;;;5.90;2.25;;;20.00;99.90;;;;;;4843864;29;20054;-79
2024/04/06 08:25:08;;;;;;;5.65;2.35;;;20.20;99.90;;;;;;4843415;29;20042;-79
2024/04/06 08:27:35;;;;;;;7.22;2.10;;;20.20;99.90;;;;;;4878328;29;20030;-78
2024/04/06 08:30:05;;;;;;;5.45;1.95;;;20.30;99.90;;;;;;4847050;29;20528;-78
2024/04/06 08:32:32;;;;;;;7.15;1.80;;;20.10;99.90;;;;;;4873203;29;20052;-79
2024/04/06 08:34:58;;;;;;;6.03;2.17;;;19.90;99.90;;;;;;4895714;29;20090;-79
2024/04/06 08:37:24;;;;;;;4.72;1.70;;;19.90;1.00;;;;;;4935171;29;20102;-79
2024/04/06 08:39:50;;;;;;;4.82;1.85;;;19.80;1.00;;;;;;4917413;29;20170;-79
2024/04/06 08:42:19;;;;;;;8.43;2.35;;;19.50;1.00;;;;;;4917843;29;20037;-79
2024/04/06 08:44:45;;;;;;;5.60;2.15;;;19.40;1.00;;;;;;4917462;29;20072;-79
2024/04/06 08:47:15;;;;;;;5.38;2.25;;;19.40;1.00;;;;;;4935108;29;20562;-79
2024/04/06 08:49:41;;;;;;;6.88;2.47;;;19.40;1.00;;;;;;4936746;29;20499;-79
2024/04/06 08:52:07;;;;;;;7.35;2.30;;;19.20;19.90;;;;;;4900872;29;20040;-78
2024/04/06 08:54:35;;;;;;;8.38;2.20;;;19.30;99.90;;;;;;4898730;29;20048;-78
2024/04/06 08:57:00;;;;;;;5.95;2.22;;;19.20;99.00;;;;;;4898633;29;20033;-78
2024/04/06 08:59:27;;;;;;;4.00;2.00;;;19.00;89.00;;;;;;4883124;29;20041;-78
2024/04/06 09:01:52;;;;;;;4.70;2.00;;;18.90;99.90;;;;;;4912116;29;20075;-78
2024/04/06 09:04:19;;;;;;;4.53;1.70;;;18.90;99.90;;;;;;4917622;29;20080;-77
2024/04/06 09:06:44;;;;;;;6.70;2.17;;;18.80;99.90;;;;;;4917086;29;20088;-78
2024/04/06 09:09:10;;;;;;;6.63;2.58;;;19.00;99.90;;;;;;4948668;29;20104;-78
2024/04/06 09:11:38;;;;;;;7.68;2.38;;;19.30;99.90;;;;;;4958709;28;20049;-78
2024/04/06 09:14:08;;;;;;;5.85;1.90;;;19.30;99.90;;;;;;4974501;28;20493;-78
2024/04/06 09:16:37;;;;;;;6.32;2.13;;;19.50;80.00;;;;;;4991347;28;20046;-78
2024/04/06 09:19:03;;;;;;;5.43;1.90;;;19.80;46.90;;;;;;4994184;28;20042;-78
2024/04/06 09:21:30;;;;;;;6.88;2.20;;;19.90;1.00;;;;;;4955081;29;20043;-78
2024/04/06 09:23:56;;;;;;;7.63;1.83;;;19.60;1.00;;;;;;4948952;29;20031;-78
2024/04/06 09:26:22;;;;;;;5.78;1.67;;;19.40;1.00;;;;;;4955146;29;20058;-78
2024/04/06 09:28:52;;;;;;;5.70;1.83;;;19.00;1.00;;;;;;4955072;28;20036;-78
2024/04/06 09:31:24;;;;;;;7.75;2.42;;;19.20;1.00;;;;;;4954905;29;20455;-79
2024/04/06 09:33:57;;;;;;;4.57;1.55;;;19.20;1.00;;;;;;4954899;29;20039;-78
2024/04/06 09:36:24;;;;;;;6.53;1.77;;;18.70;1.00;;;;;;4936011;29;20070;-78
2024/04/06 09:38:51;;;;;;;5.85;1.85;;;18.70;1.00;;;;;;4972436;28;20542;-78
2024/04/06 09:41:21;;;;;;;5.38;1.75;;;18.50;1.00;;;;;;4955222;29;20402;-78
2024/04/06 09:43:53;;;;;;;6.05;1.80;;;18.40;1.00;;;;;;4935659;29;20505;-79
2024/04/06 09:46:19;;;;;;;5.78;1.70;;;18.50;1.00;;;;;;4916538;29;20040;-78
2024/04/06 09:48:46;;;;;;;5.18;1.73;;;18.60;1.00;;;;;;4916424;29;20067;-81
2024/04/06 09:51:12;;;;;;;6.65;2.13;;;18.80;1.00;;;;;;4878822;29;20060;-79
2024/04/06 09:53:39;;;;;;;6.78;2.10;;;19.10;1.00;;;;;;4897146;29;20079;-79
2024/04/06 09:56:07;;;;;;;7.10;2.25;;;19.20;1.00;;;;;;4879078;29;20081;-79
2024/04/06 09:58:33;;;;;;;8.75;2.22;;;19.40;1.00;;;;;;4878942;29;20048;-79
2024/04/06 10:01:14;;;;;;;6.03;1.95;;;19.50;1.00;;;;;;4878710;29;20033;-78
2024/04/06 10:03:45;;;;;;;6.15;1.77;;;19.60;99.90;;;;;;4879052;29;20037;-78
2024/04/06 10:06:18;;;;;;;7.78;1.90;;;19.40;1.00;;;;;;4841780;29;20041;-79
2024/04/06 10:08:57;;;;;;;5.63;2.17;;;18.90;1.00;;;;;;4860488;29;20091;-78
2024/04/06 10:11:26;;;;;;;5.85;1.50;;;18.70;1.00;;;;;;4858143;29;20053;-77
2024/04/06 10:14:03;;;;;;;6.35;1.88;;;18.60;1.00;;;;;;4860040;29;20080;-77
2024/04/06 10:16:29;;;;;;;7.45;1.92;;;19.00;1.00;;;;;;4868673;29;20116;-77
2024/04/06 10:18:56;;;;;;;7.72;2.22;;;19.50;1.00;;;;;;4916112;29;20039;-77
2024/04/06 10:21:29;;;;;;;7.25;2.30;;;19.70;1.00;;;;;;4896989;29;20093;-78
2024/04/06 10:23:54;;;;;;;7.15;1.77;;;19.60;1.00;;;;;;4878524;29;20120;-78
2024/04/06 10:26:21;;;;;;;6.38;1.80;;;19.30;1.00;;;;;;4885468;29;20122;-77
2024/04/06 10:28:47;;;;;;;9.25;2.30;;;19.60;1.00;;;;;;4915892;29;20043;-78
2024/04/06 10:31:13;;;;;;;5.40;1.42;;;19.90;99.90;;;;;;4915490;29;20065;-77
2024/04/06 10:33:39;;;;;;;7.90;1.90;;;19.60;99.90;;;;;;4915672;29;20048;-78
2024/04/06 10:36:12;;;;;;;5.32;1.58;;;19.80;99.90;;;;;;4915679;29;20072;-78
2024/04/06 10:38:41;;;;;;;6.43;2.00;;;20.50;99.90;;;;;;4917838;29;20054;-77
2024/04/06 10:41:08;;;;;;;6.65;1.58;;;20.90;99.90;;;;;;4953600;28;20032;-77
2024/04/06 10:43:35;;;;;;;7.68;2.10;;;21.00;99.90;;;;;;4954009;29;20054;-78
2024/04/06 10:46:02;;;;;;;6.50;1.85;;;21.10;99.90;;;;;;4934419;29;20526;-78
2024/04/06 10:48:28;;;;;;;7.30;2.10;;;21.80;99.90;;;;;;4934657;29;20095;-78
2024/04/06 10:50:55;;;;;;;5.40;1.73;;;22.40;99.90;;;;;;4934434;29;20043;-78
2024/04/06 10:53:22;;;;;;;8.15;2.08;;;22.70;99.90;;;;;;4969593;28;20101;-78
2024/04/06 10:55:48;;;;;;;8.27;2.95;;;22.80;99.90;;;;;;4990238;28;20128;-78
2024/04/06 10:58:16;;;;;;;5.70;1.80;;;22.60;99.90;;;;;;4992232;28;20037;-77
2024/04/06 11:00:41;;;;;;;8.02;2.22;;;22.20;99.90;;;;;;4992270;28;20105;-77
2024/04/06 11:03:08;;;;;;;7.50;1.98;;;22.10;99.90;;;;;;4973063;28;20074;-78
2024/04/06 11:05:35;;;;;;;6.65;2.30;;;21.90;99.90;;;;;;4934472;29;20067;-78
2024/04/06 11:08:02;;;;;;;6.88;1.83;;;21.70;99.90;;;;;;4934446;29;20043;-78
2024/04/06 11:10:28;;;;;;;4.95;1.60;;;21.60;99.90;;;;;;4934393;29;20036;-78
2024/04/06 11:12:57;;;;;;;6.70;2.13;;;21.30;99.90;;;;;;4950097;29;20058;-78
2024/04/06 11:15:23;;;;;;;5.88;1.95;;;21.10;99.90;;;;;;4953424;29;20038;-79
2024/04/06 11:17:50;;;;;;;11.57;2.30;;;21.20;99.90;;;;;;4953520;29;20050;-79
2024/04/06 11:20:16;;;;;;;4.68;1.73;;;21.50;99.90;;;;;;4953330;29;20122;-78
2024/04/06 11:22:42;;;;;;;6.80;1.92;;;21.90;99.90;;;;;;4969315;28;20047;-78
2024/04/06 11:25:19;;;;;;;6.05;1.92;;;22.10;99.90;;;;;;4972532;28;20126;-79
2024/04/06 11:27:52;;;;;;;8.70;2.00;;;23.00;99.90;;;;;;4953581;29;20180;-78
2024/04/06 11:30:18;;;;;;;7.03;2.10;;;23.90;99.90;;;;;;4952907;28;20054;-78
2024/04/06 11:32:48;;;;;;;7.38;1.83;;;23.70;99.90;;;;;;4953256;29;20075;-78
2024/04/06 11:35:13;;;;;;;6.38;1.90;;;23.50;99.90;;;;;;4990384;28;20077;-78
2024/04/06 11:37:39;;;;;;;6.63;1.60;;;23.70;99.90;;;;;;4992248;28;20058;-78
2024/04/06 11:40:05;;;;;;;6.22;1.70;;;24.00;99.90;;;;;;4991925;28;20037;-78
2024/04/06 11:42:30;;;;;;;6.22;1.63;;;24.00;99.90;;;;;;4991840;28;20038;-77
2024/04/06 11:44:56;;;;;;;6.75;1.80;;;23.90;93.70;;;;;;4992009;28;20053;-78
2024/04/06 11:47:21;;;;;;;5.80;1.40;;;23.80;94.20;;;;;;4953020;29;20165;-77
2024/04/06 11:49:50;;;;;;;5.68;1.50;;;23.70;96.30;;;;;;4953239;29;20428;-77
2024/04/06 11:52:16;;;;;;;5.28;1.60;;;23.90;90.90;;;;;;4897499;29;20401;-77
2024/04/06 11:54:42;;;;;;;4.45;1.50;;;23.60;92.10;;;;;;4899813;29;20056;-77
2024/04/06 11:57:09;;;;;;;5.20;1.38;;;23.00;93.80;;;;;;4880821;29;20044;-77
2024/04/06 11:59:34;;;;;;;4.25;1.30;;;23.40;90.80;;;;;;4896967;29;20469;-77
2024/04/06 12:02:00;;;;;;;5.30;1.73;;;23.30;87.00;;;;;;4899577;29;20066;-78
2024/04/06 12:04:26;;;;;;;6.05;1.75;;;23.30;91.20;;;;;;4895667;29;20047;-79
2024/04/06 12:06:52;;;;;;;3.90;1.58;;;23.40;81.70;;;;;;4899454;29;20531;-78
2024/04/06 12:09:20;;;;;;;4.53;1.58;;;23.90;82.00;;;;;;4899701;29;20037;-78
2024/04/06 12:11:45;;;;;;;4.57;1.60;;;23.80;50.30;;;;;;4899376;29;20064;-78
2024/04/06 12:14:11;;;;;;;4.68;1.40;;;24.00;49.10;;;;;;4880745;29;20072;-77
2024/04/06 12:16:37;;;;;;;4.05;1.73;;;24.30;49.80;;;;;;4880648;29;20037;-78
2024/04/06 12:19:02;;;;;;;3.92;1.60;;;24.30;33.60;;;;;;4894983;29;20041;-78
2024/04/06 12:21:28;;;;;;;3.55;1.33;;;23.90;27.60;;;;;;4880403;29;20525;-79
2024/04/06 12:23:54;;;;;;;4.55;1.52;;;24.10;18.80;;;;;;4866180;29;20422;-78
2024/04/06 12:26:19;;;;;;;5.28;1.52;;;24.10;27.50;;;;;;4861863;29;20462;-78
2024/04/06 12:28:45;;;;;;;6.00;1.63;;;23.80;22.60;;;;;;4861763;29;20041;-78
2024/04/06 12:31:11;;;;;;;4.82;1.63;;;23.90;23.30;;;;;;4842985;29;20065;-78
2024/04/06 12:33:37;;;;;;;6.55;1.92;;;23.50;19.50;;;;;;4843157;29;20042;-78
2024/04/06 12:36:03;;;;;;;3.85;1.70;;;23.50;30.00;;;;;;4857117;29;20064;-79
2024/04/06 12:38:30;;;;;;;8.43;2.20;;;23.70;23.10;;;;;;4847551;29;20034;-79
2024/04/06 12:40:56;;;;;;;4.75;1.33;;;23.90;26.40;;;;;;4862019;29;20043;-79
2024/04/06 12:43:22;;;;;;;5.72;2.00;;;24.40;27.00;;;;;;4861598;29;20076;-79
2024/04/06 12:45:48;;;;;;;7.38;2.10;;;24.10;30.20;;;;;;4859555;29;20038;-78